WetterOnline ( https://www.wetteronline.de )

Wetter aktuell Straubing

Aktuelles Wetter: Straubing (360m)

6-stündlich | Neueste Meldungen
Ortszeit Temperatur Wetter
So, 25.09. 8:00 11.9° C bedeckt
So, 25.09. 2:00 11.6° C leichter Regen
Sa, 24.09. 20:00 12.5° C Regen
Sa, 24.09. 14:00 14.5° C leichter Regen
Sa, 24.09. 8:00 7.4° C bedeckt
Sa, 24.09. 2:00 7.0° C bewölkt
Fr, 23.09. 20:00 11.4° C wolkig
Fr, 23.09. 14:00 15.2° C leicht bewölkt
Ortszeit Temperatur Wetter
So, 25.09. 10:00 12.8° C bewölkt
So, 25.09. 9:50 12.8° C Dunst
So, 25.09. 9:40 12.9° C Dunst
So, 25.09. 9:30 12.5° C bedeckt
So, 25.09. 9:20 12.5° C Dunst
So, 25.09. 9:10 12.5° C Dunst
So, 25.09. 9:00 12.2° C bedeckt
So, 25.09. 8:30 12.1° C bedeckt
So, 25.09. 8:00 11.9° C bedeckt
So, 25.09. 7:30 11.7° C bedeckt
So, 25.09. 7:00 11.6° C bedeckt
Ortszeit Relative Feuchte Sichtweite
So, 25.09. 8:00 98% 2.0 km
So, 25.09. 2:00 97% 2.6 km
Sa, 24.09. 20:00 97% 3.9 km
Sa, 24.09. 14:00 75% 26 km
Sa, 24.09. 8:00 87% 35 km
Sa, 24.09. 2:00 90% 40 km
Fr, 23.09. 20:00 72% 30 km
Fr, 23.09. 14:00 52% 55 km
Ortszeit Relative Feuchte Sichtweite
So, 25.09. 10:00 96% 3.6 km
So, 25.09. 9:50 96% -
So, 25.09. 9:40 96% -
So, 25.09. 9:30 95% 3.2 km
So, 25.09. 9:20 95% -
So, 25.09. 9:10 96% -
So, 25.09. 9:00 96% 2.9 km
So, 25.09. 8:30 97% 2.3 km
So, 25.09. 8:00 98% 2.0 km
So, 25.09. 7:30 98% 1.8 km
So, 25.09. 7:00 98% 1.4 km
Ortszeit Niederschlagsmenge Niederschlagsart
So, 25.09. 8:00 0.9 l/m2 in 12 Std. Regen
So, 25.09. 2:00 0.5 l/m2 in 6 Std. Regen
Sa, 24.09. 20:00 0.8 l/m2 in 12 Std. Regen
Sa, 24.09. 14:00 0.1 l/m2 in 6 Std. Regen
Sa, 24.09. 8:00 0.0 l/m2 in 12 Std. -
Sa, 24.09. 2:00 0.0 l/m2 in 6 Std. -
Fr, 23.09. 20:00 0.0 l/m2 in 12 Std. -
Fr, 23.09. 14:00 0.0 l/m2 in 6 Std. -
Ortszeit Niederschlagsmenge Niederschlagsart
So, 25.09. 10:00 0.0 l/m2 in 1 Std. -
So, 25.09. 9:50 keine Meldung -
So, 25.09. 9:40 keine Meldung -
So, 25.09. 9:30 0.0 l/m2 in 1 Std. -
So, 25.09. 9:20 keine Meldung -
So, 25.09. 9:10 keine Meldung -
So, 25.09. 9:00 0.0 l/m2 in 1 Std. -
So, 25.09. 8:30 0.0 l/m2 in 1 Std. -
So, 25.09. 8:00 0.0 l/m2 in 1 Std. Regen
So, 25.09. 7:30 0.0 l/m2 in 1 Std. -
So, 25.09. 7:00 0.0 l/m2 in 1 Std. -
Ortszeit Stärke Spitze Richtung
km/h Bft. km/h Grad Sektor
So, 25.09. 8:00 4 1 11 130° SO
So, 25.09. 2:00 4 1 7 60° NO
Sa, 24.09. 20:00 0 0 11 - -
Sa, 24.09. 14:00 6 1 20 230° SW
Sa, 24.09. 8:00 4 1 14 90° O
Sa, 24.09. 2:00 4 1 7 110° O
Fr, 23.09. 20:00 4 1 22 90° O
Fr, 23.09. 14:00 13 3 26 120° SO
Ortszeit Stärke Spitze Richtung
km/h Bft. km/h Grad Sektor
So, 25.09. 10:00 7 2 11 100° O
So, 25.09. 9:50 7 2 - 100° O
So, 25.09. 9:40 7 2 - 100° O
So, 25.09. 9:30 4 1 7 120° SO
So, 25.09. 9:20 4 1 - 120° SO
So, 25.09. 9:10 4 1 - 130° SO
So, 25.09. 9:00 4 1 7 130° SO
So, 25.09. 8:30 6 1 7 100° O
So, 25.09. 8:00 4 1 11 130° SO
So, 25.09. 7:30 4 1 11 120° SO
So, 25.09. 7:00 6 1 7 100° O
Ortszeit Untergrenze Bedeckung Gattung
total tief tief mittel hoch
So, 25.09. 8:00 60 m 8/8 8/8 - - -
So, 25.09. 2:00 360 m 7/8 7/8 - - -
Sa, 24.09. 20:00 210 m 8/8 8/8 - - -
Sa, 24.09. 14:00 1500 m 7/8 7/8 - - -
Sa, 24.09. 8:00 3900 m 8/8 8/8 - - -
Sa, 24.09. 2:00 4500 m 7/8 7/8 - - -
Fr, 23.09. 20:00 7200 m 8/8 0/8 - - -
Fr, 23.09. 14:00 10500 m 8/8 0/8 - - -
Ortszeit Bedeckungsgrad in Achtel und Wolkenuntergrenze
So, 25.09. 10:00 7(120m) 7(240m)
So, 25.09. 9:50 7(120m) 7(240m)
So, 25.09. 9:40 8
So, 25.09. 9:30 7(90m) 8(210m)
So, 25.09. 9:20 7(90m) 8(210m)
So, 25.09. 9:10 8
So, 25.09. 9:00 8(90m)
So, 25.09. 8:30 8(60m)
So, 25.09. 8:00 8(60m)
So, 25.09. 7:30 8(30m)
So, 25.09. 7:00 8(30m)
Ortszeit Luftdruck NN (hPa) Tendenz (hPa in 3 Std.)
So, 25.09. 8:00 1013 - 0,2
So, 25.09. 2:00 1014 - 0,4
Sa, 24.09. 20:00 1014 + 0,2
Sa, 24.09. 14:00 1014 + 0,1
Sa, 24.09. 8:00 1015 - 0,3
Sa, 24.09. 2:00 1017 - 0,6
Fr, 23.09. 20:00 1017 - 0,6
Fr, 23.09. 14:00 1018 - 1,7
Ortszeit Luftdruck NN (hPa) Tendenz (hPa in 3 Std.)
So, 25.09. 10:00 1012 0,0
So, 25.09. 9:50 1012 keine Meldung
So, 25.09. 9:40 1012 keine Meldung
So, 25.09. 9:30 1013 0,0
So, 25.09. 9:20 1013 keine Meldung
So, 25.09. 9:10 1013 keine Meldung
So, 25.09. 9:00 1013 - 0,1
So, 25.09. 8:30 1013 - 0,2
So, 25.09. 8:00 1013 - 0,2
So, 25.09. 7:30 1013 - 0,5
So, 25.09. 7:00 1013 - 0,4
Ortszeit Schneehöhe (cm)
So, 25.09. 8:00 0
So, 25.09. 2:00 0
Sa, 24.09. 20:00 0
Sa, 24.09. 14:00 0
Sa, 24.09. 8:00 0
Sa, 24.09. 2:00 0
Fr, 23.09. 20:00 0
Fr, 23.09. 14:00 0
Ortszeit Schneehöhe (cm)
So, 25.09. 10:00 0
So, 25.09. 9:50 0
So, 25.09. 9:40 0
So, 25.09. 9:30 0
So, 25.09. 9:20 0
So, 25.09. 9:10 0
So, 25.09. 9:00 0
So, 25.09. 8:30 0
So, 25.09. 8:00 0
So, 25.09. 7:30 0
So, 25.09. 7:00 0
Link zu dieser Seite / Seite empfehlen

Das Wetter in ...